createdAt,value
2019-05-03T00:02:35.504Z,99687.66
2019-05-03T00:05:12.526Z,99686.04
2019-05-03T00:07:42.282Z,99694.55
2019-05-03T00:10:12.885Z,99692.91
2019-05-03T00:12:42.653Z,99686.67
2019-05-03T00:15:23.291Z,99687.94
2019-05-03T00:17:52.934Z,99682.05
2019-05-03T00:20:22.551Z,99689.92
2019-05-03T00:22:52.465Z,99690.94
2019-05-03T00:25:24.961Z,99698.44
2019-05-03T00:27:54.648Z,99701.77
2019-05-03T00:30:24.265Z,99710.28
2019-05-03T00:32:53.931Z,99705.83
2019-05-03T00:35:33.837Z,99697.97
2019-05-03T00:38:05.871Z,99696.25
2019-05-03T00:40:35.492Z,99692.64
2019-05-03T00:43:05.163Z,99698.97
2019-05-03T00:45:34.992Z,99709.83
2019-05-03T00:48:04.605Z,99709.94
2019-05-03T00:50:34.212Z,99706.66
2019-05-03T00:53:05.016Z,99713.73
2019-05-03T00:55:34.621Z,99712.03
2019-05-03T00:58:04.362Z,99718.06
2019-05-03T01:00:34.009Z,99722.67
2019-05-03T01:03:03.615Z,99719.14
2019-05-03T01:05:33.265Z,99729.91
2019-05-03T01:08:02.962Z,99722.00
2019-05-03T01:10:33.130Z,99725.36
2019-05-03T01:13:03.000Z,99727.25
2019-05-03T01:15:51.954Z,99725.98
2019-05-03T01:18:22.458Z,99727.80
2019-05-03T01:20:52.346Z,99726.89
2019-05-03T01:23:22.057Z,99738.09
2019-05-03T01:25:51.771Z,99735.60
2019-05-03T01:28:21.660Z,99730.27
2019-05-03T01:30:51.896Z,99734.31
2019-05-03T01:33:22.592Z,99735.75
2019-05-03T01:35:52.302Z,99729.59
2019-05-03T01:38:22.682Z,99736.09
2019-05-03T01:40:52.429Z,99732.02
2019-05-03T01:43:22.311Z,99730.17
2019-05-03T01:45:52.338Z,99740.41
2019-05-03T01:48:35.686Z,99724.09
2019-05-03T01:51:24.807Z,99730.28
2019-05-03T01:53:54.413Z,99733.87
2019-05-03T01:56:25.005Z,99730.03
2019-05-03T01:58:54.656Z,99735.92
2019-05-03T02:01:44.392Z,99734.04
2019-05-03T02:04:15.715Z,99744.67
2019-05-03T02:06:45.800Z,99741.66
2019-05-03T02:09:15.401Z,99740.34
2019-05-03T02:11:45.055Z,99747.11
2019-05-03T02:14:14.666Z,99742.45
2019-05-03T02:16:44.272Z,99743.34
2019-05-03T02:19:13.923Z,99755.64
2019-05-03T02:21:43.658Z,99749.31
2019-05-03T02:24:13.629Z,99755.33
2019-05-03T02:26:43.319Z,99751.47
2019-05-03T02:29:12.924Z,99760.39
2019-05-03T02:31:43.858Z,99761.66
2019-05-03T02:34:14.300Z,99768.69
2019-05-03T02:36:43.917Z,99766.92
2019-05-03T02:39:15.177Z,99761.86
2019-05-03T02:41:48.379Z,99756.64
2019-05-03T02:44:17.814Z,99761.77
2019-05-03T02:46:52.057Z,99769.91
2019-05-03T02:49:25.517Z,99767.15
2019-05-03T02:51:55.630Z,99773.31
2019-05-03T02:54:26.845Z,99771.32
2019-05-03T02:56:57.973Z,99767.81
2019-05-03T02:59:28.450Z,99771.67
2019-05-03T03:01:58.433Z,99769.45
2019-05-03T03:04:28.108Z,99772.87
2019-05-03T03:06:59.068Z,99778.91
2019-05-03T03:09:30.028Z,99779.13
2019-05-03T03:12:00.614Z,99774.67
2019-05-03T03:14:32.503Z,99783.53
2019-05-03T03:17:06.644Z,99787.39
2019-05-03T03:19:38.000Z,99780.78
2019-05-03T03:22:11.062Z,99779.36
2019-05-03T03:24:45.806Z,99784.08
2019-05-03T03:27:18.453Z,99792.10
2019-05-03T03:29:51.122Z,99793.27
2019-05-03T03:32:29.592Z,99793.66
2019-05-03T03:35:20.312Z,99800.13
2019-05-03T03:37:46.381Z,99795.90
2019-05-03T03:40:17.989Z,99795.23
2019-05-03T03:42:50.905Z,99812.66
2019-05-03T03:45:20.626Z,99808.92
2019-05-03T03:47:56.115Z,99801.42
2019-05-03T03:50:26.192Z,99818.45
2019-05-03T03:52:59.155Z,99812.72
2019-05-03T03:55:35.331Z,99809.75
2019-05-03T03:58:06.429Z,99811.61
2019-05-03T04:00:36.555Z,99818.61
2019-05-03T04:03:07.679Z,99827.81
2019-05-03T04:05:38.038Z,99838.08
2019-05-03T04:08:07.733Z,99855.63
2019-05-03T04:10:38.373Z,99859.86
2019-05-03T04:13:09.841Z,99856.42
2019-05-03T04:15:41.758Z,99865.17
2019-05-03T04:18:16.185Z,99872.76
2019-05-03T04:20:45.865Z,99879.16
2019-05-03T04:23:16.365Z,99883.98
2019-05-03T04:25:46.480Z,99900.64
2019-05-03T04:28:16.488Z,99900.77
2019-05-03T04:30:46.184Z,99905.84
2019-05-03T04:33:16.655Z,99916.84
2019-05-03T04:35:46.640Z,99925.72
2019-05-03T04:38:16.577Z,99937.18
2019-05-03T04:40:46.272Z,99931.43
2019-05-03T04:43:16.992Z,99938.58
2019-05-03T04:45:48.247Z,99949.37
2019-05-03T04:48:17.885Z,99947.80
2019-05-03T04:50:47.513Z,99949.67
2019-05-03T04:53:17.115Z,99957.19
2019-05-03T04:55:47.050Z,99953.70
2019-05-03T04:58:16.758Z,99966.27
2019-05-03T05:00:46.726Z,99968.55
2019-05-03T05:03:16.469Z,99981.14
2019-05-03T05:05:46.156Z,99975.98
2019-05-03T05:08:16.384Z,99977.34
2019-05-03T05:10:46.325Z,99979.34
2019-05-03T05:13:17.033Z,99987.86
2019-05-03T05:15:46.673Z,99999.09
2019-05-03T05:18:21.082Z,99994.69
2019-05-03T05:20:55.569Z,99994.90
2019-05-03T05:23:25.282Z,99999.66
2019-05-03T05:26:05.635Z,100000.61
2019-05-03T05:28:48.718Z,100009.22
2019-05-03T05:31:18.844Z,100011.16
2019-05-03T05:33:48.529Z,100011.31
2019-05-03T05:36:18.144Z,100020.02
2019-05-03T05:38:47.840Z,100026.38
2019-05-03T05:41:17.449Z,100033.98
2019-05-03T05:43:47.061Z,100037.86
2019-05-03T05:46:17.386Z,100045.83
2019-05-03T05:48:51.224Z,100037.66
2019-05-03T05:51:21.727Z,100038.72
2019-05-03T05:53:51.668Z,100047.37
2019-05-03T05:56:24.959Z,100046.27
2019-05-03T05:58:55.890Z,100050.77
2019-05-03T06:01:27.199Z,100061.12
2019-05-03T06:03:56.892Z,100058.73
2019-05-03T06:06:45.107Z,100056.11
2019-05-03T06:09:16.573Z,100058.67
2019-05-03T06:11:47.833Z,100061.12
2019-05-03T06:14:19.151Z,100061.73
2019-05-03T06:16:50.417Z,100063.75
2019-05-03T06:19:21.669Z,100068.23
2019-05-03T06:21:55.455Z,100067.17
2019-05-03T06:24:32.574Z,100073.51
2019-05-03T06:27:06.569Z,100072.75
2019-05-03T06:29:37.060Z,100076.47
2019-05-03T06:32:08.436Z,100078.91
2019-05-03T06:34:38.127Z,100090.98
2019-05-03T06:37:12.385Z,100088.16
2019-05-03T06:39:45.485Z,100098.30
2019-05-03T06:42:19.124Z,100101.12
2019-05-03T06:44:46.469Z,100102.45
2019-05-03T06:47:16.080Z,100107.05
2019-05-03T06:49:48.468Z,100103.62
2019-05-03T06:52:19.750Z,100107.23
2019-05-03T06:54:48.438Z,100112.20
2019-05-03T06:57:19.333Z,100118.16
2019-05-03T06:59:50.590Z,100119.63
2019-05-03T07:02:21.860Z,100123.21
2019-05-03T07:04:58.758Z,100128.23
2019-05-03T07:07:30.035Z,100135.34
2019-05-03T07:10:05.027Z,100136.06
2019-05-03T07:12:54.705Z,100141.42
2019-05-03T07:15:25.345Z,100144.72
2019-05-03T07:17:55.609Z,100143.61
2019-05-03T07:20:27.092Z,100149.13
2019-05-03T07:22:56.765Z,100143.95
2019-05-03T07:25:26.544Z,100153.55
2019-05-03T07:28:07.002Z,100153.88
2019-05-03T07:30:38.154Z,100149.27
2019-05-03T07:33:09.530Z,100153.42
2019-05-03T07:35:41.044Z,100169.64
2019-05-03T07:38:10.786Z,100164.73
2019-05-03T07:40:40.481Z,100168.77
2019-05-03T07:43:11.210Z,100171.03
2019-05-03T07:45:40.823Z,100171.57
2019-05-03T07:48:10.492Z,100175.22
2019-05-03T07:50:40.251Z,100182.95
2019-05-03T07:53:10.089Z,100178.53
2019-05-03T07:55:56.604Z,100179.47
2019-05-03T07:58:35.162Z,100178.02
2019-05-03T08:01:09.781Z,100180.83
2019-05-03T08:03:38.709Z,100186.94
2019-05-03T08:06:08.417Z,100187.32
2019-05-03T08:08:40.965Z,100194.34
2019-05-03T08:11:10.638Z,100187.83
2019-05-03T08:13:40.514Z,100181.63
2019-05-03T08:16:10.347Z,100184.87
2019-05-03T08:18:40.055Z,100194.65
2019-05-03T08:21:09.811Z,100190.50
2019-05-03T08:23:39.476Z,100195.98
2019-05-03T08:26:09.108Z,100200.86
2019-05-03T08:28:38.729Z,100201.48
2019-05-03T08:31:15.821Z,100204.44
2019-05-03T08:33:50.409Z,100196.84
2019-05-03T08:36:21.355Z,100209.81
2019-05-03T08:38:51.046Z,100203.16
2019-05-03T08:41:25.380Z,100203.02
2019-05-03T08:43:55.428Z,100208.00
2019-05-03T08:46:25.685Z,100211.16
2019-05-03T08:48:55.295Z,100215.45
2019-05-03T08:51:25.197Z,100218.98
2019-05-03T08:53:56.018Z,100216.17
2019-05-03T08:56:25.797Z,100218.92
2019-05-03T08:58:55.650Z,100220.70
2019-05-03T09:01:25.999Z,100227.74
2019-05-03T09:03:58.827Z,100225.85
2019-05-03T09:06:28.520Z,100222.11
2019-05-03T09:08:58.181Z,100223.25
2019-05-03T09:11:33.549Z,100225.51
2019-05-03T09:14:01.154Z,100232.89
2019-05-03T09:16:31.146Z,100234.09
2019-05-03T09:19:00.932Z,100241.48
2019-05-03T09:21:30.621Z,100238.94
2019-05-03T09:24:04.709Z,100241.64
2019-05-03T09:26:35.102Z,100246.44
2019-05-03T09:29:05.665Z,100245.84
2019-05-03T09:31:35.411Z,100241.30
2019-05-03T09:34:08.045Z,100233.34
2019-05-03T09:36:36.766Z,100236.55
2019-05-03T09:39:08.255Z,100231.34
2019-05-03T09:41:37.877Z,100227.37
2019-05-03T09:44:07.560Z,100230.91
2019-05-03T09:46:37.189Z,100235.98
2019-05-03T09:49:12.779Z,100242.23
2019-05-03T09:51:38.349Z,100245.44
2019-05-03T09:54:15.632Z,100246.98
2019-05-03T09:56:58.778Z,100249.45
2019-05-03T09:59:29.724Z,100249.28
2019-05-03T10:01:59.835Z,100245.73
2019-05-03T10:04:29.488Z,100249.72
2019-05-03T10:06:59.215Z,100246.48
2019-05-03T10:09:28.900Z,100248.86
2019-05-03T10:11:59.277Z,100254.77
2019-05-03T10:14:30.252Z,100249.68
2019-05-03T10:17:19.653Z,100254.59
2019-05-03T10:19:49.324Z,100259.75
2019-05-03T10:22:22.004Z,100265.14
2019-05-03T10:24:51.896Z,100268.33
2019-05-03T10:27:21.686Z,100266.34
2019-05-03T10:29:51.396Z,100266.09
2019-05-03T10:32:25.690Z,100262.12
2019-05-03T10:34:56.999Z,100269.40
2019-05-03T10:37:35.682Z,100265.96
2019-05-03T10:40:08.122Z,100269.33
2019-05-03T10:42:38.223Z,100275.31
2019-05-03T10:45:09.392Z,100281.02
2019-05-03T10:47:39.076Z,100280.55
2019-05-03T10:50:09.010Z,100282.45
2019-05-03T10:52:44.717Z,100280.91
2019-05-03T10:55:15.950Z,100275.27
2019-05-03T10:57:47.473Z,100286.26
2019-05-03T11:00:42.456Z,100291.57
2019-05-03T11:02:55.081Z,100292.89
2019-05-03T11:05:24.975Z,100297.50
2019-05-03T11:07:55.613Z,100296.76
2019-05-03T11:10:25.541Z,100293.81
2019-05-03T11:12:55.238Z,100286.93
2019-05-03T11:15:25.907Z,100281.87
2019-05-03T11:17:55.661Z,100282.43
2019-05-03T11:20:32.124Z,100282.46
2019-05-03T11:23:02.823Z,100287.38
2019-05-03T11:25:34.460Z,100278.40
2019-05-03T11:28:06.934Z,100282.11
2019-05-03T11:30:36.557Z,100292.84
2019-05-03T11:33:07.817Z,100285.28
2019-05-03T11:35:44.913Z,100295.13
2019-05-03T11:38:16.311Z,100291.58
2019-05-03T11:40:48.172Z,100287.94
2019-05-03T11:43:19.570Z,100289.66
2019-05-03T11:45:49.333Z,100291.20
2019-05-03T11:48:25.315Z,100289.68
2019-05-03T11:50:56.065Z,100283.78
2019-05-03T11:53:26.065Z,100277.45
2019-05-03T11:58:50.621Z,100283.40
2019-05-03T12:01:28.018Z,100284.66
2019-05-03T12:03:57.951Z,100289.04
2019-05-03T12:06:36.941Z,100288.27
2019-05-03T12:09:09.379Z,100287.30
2019-05-03T12:11:41.084Z,100286.58
2019-05-03T12:14:12.418Z,100293.16
2019-05-03T12:17:19.135Z,100299.25
2019-05-03T12:19:38.230Z,100301.20
2019-05-03T12:22:09.251Z,100303.45
2019-05-03T12:24:39.951Z,100309.86
2019-05-03T12:27:10.017Z,100323.59
2019-05-03T12:29:39.715Z,100314.82
2019-05-03T13:01:40.642Z,100311.13
2019-05-03T13:03:59.753Z,100317.94
2019-05-03T13:06:31.017Z,100315.08
2019-05-03T13:09:00.672Z,100317.03
2019-05-03T13:11:34.702Z,100315.29
2019-05-03T13:14:04.791Z,100312.05
2019-05-03T13:16:35.411Z,100321.01
2019-05-03T13:19:05.632Z,100310.61
2019-05-03T13:21:35.676Z,100306.33
2019-05-03T13:24:05.603Z,100317.63
2019-05-03T13:26:35.352Z,100324.08
2019-05-03T13:29:05.853Z,100323.05
2019-05-03T13:31:35.753Z,100320.30
2019-05-03T13:34:05.731Z,100325.50
2019-05-03T13:36:35.457Z,100319.77
2019-05-03T13:39:13.896Z,100329.63
2019-05-03T13:41:38.493Z,100331.16
2019-05-03T13:44:08.128Z,100326.16
2019-05-03T13:46:37.826Z,100327.63
2019-05-03T13:49:08.836Z,100332.52
2019-05-03T13:51:38.554Z,100336.17
2019-05-03T13:54:08.209Z,100333.34
2019-05-03T13:56:37.836Z,100345.24
2019-05-03T13:59:18.477Z,100342.17
2019-05-03T14:01:38.847Z,100343.38
2019-05-03T14:04:08.497Z,100333.66
2019-05-03T14:06:38.140Z,100323.20
2019-05-03T14:09:07.817Z,100316.28
2019-05-03T14:11:38.954Z,100322.00
2019-05-03T14:14:08.663Z,100329.80
2019-05-03T14:16:38.308Z,100331.52
2019-05-03T14:19:12.315Z,100333.55
2019-05-03T14:21:43.621Z,100328.00
2019-05-03T14:24:15.614Z,100322.74
2019-05-03T14:26:44.978Z,100322.22
2019-05-03T14:29:15.075Z,100322.15
2019-05-03T14:31:45.565Z,100328.63
2019-05-03T14:34:17.472Z,100328.36
2019-05-03T14:36:46.631Z,100322.34
2019-05-03T14:39:16.356Z,100326.52
2019-05-03T14:41:46.923Z,100327.09
2019-05-03T14:44:18.116Z,100323.81
2019-05-03T14:46:48.182Z,100329.80
2019-05-03T14:49:17.791Z,100337.24
2019-05-03T14:51:47.510Z,100333.31
2019-05-03T14:54:21.757Z,100335.37
2019-05-03T14:57:09.293Z,100329.23
2019-05-03T14:59:56.728Z,100330.14
2019-05-03T15:02:40.900Z,100332.37
2019-05-03T15:05:02.310Z,100321.48
2019-05-03T15:07:31.980Z,100322.89
2019-05-03T15:10:01.622Z,100312.27
2019-05-03T15:12:31.253Z,100317.58
2019-05-03T15:15:01.148Z,100331.58
2019-05-03T15:17:30.773Z,100329.89
2019-05-03T15:20:00.416Z,100334.78
2019-05-03T15:22:30.064Z,100329.16
2019-05-03T15:24:59.763Z,100322.24
2019-05-03T15:27:30.965Z,100328.00
2019-05-03T15:30:00.632Z,100327.97
2019-05-03T15:32:30.257Z,100331.55
2019-05-03T15:35:00.663Z,100336.00
2019-05-03T15:37:30.342Z,100335.29
2019-05-03T15:39:59.972Z,100337.52
2019-05-03T15:42:29.869Z,100333.84
2019-05-03T15:45:07.068Z,100326.47
2019-05-03T15:47:38.685Z,100322.41
2019-05-03T15:50:08.943Z,100318.64
2019-05-03T15:52:38.660Z,100320.22
2019-05-03T15:55:08.699Z,100326.36
2019-05-03T15:57:38.373Z,100325.22
2019-05-03T16:00:10.040Z,100328.05
2019-05-03T16:02:39.669Z,100321.95
2019-05-03T16:05:09.302Z,100325.90
2019-05-03T16:07:39.176Z,100326.44
2019-05-03T16:10:08.865Z,100328.02
2019-05-03T16:12:38.481Z,100332.29
2019-05-03T16:15:08.494Z,100325.92
2019-05-03T16:17:38.089Z,100322.02
2019-05-03T16:20:08.133Z,100322.20
2019-05-03T16:22:37.821Z,100324.20
2019-05-03T16:25:08.459Z,100324.11
2019-05-03T16:27:39.720Z,100323.52
2019-05-03T16:30:11.490Z,100325.69
2019-05-03T16:32:41.139Z,100327.97
2019-05-03T16:35:14.871Z,100321.33
2019-05-03T16:37:45.227Z,100317.25
2019-05-03T16:40:16.758Z,100320.77
2019-05-03T16:42:46.718Z,100323.42
2019-05-03T16:45:17.069Z,100317.69
2019-05-03T16:47:46.816Z,100318.20
2019-05-03T16:50:16.789Z,100319.32
2019-05-03T16:52:46.447Z,100316.84
2019-05-03T16:55:16.399Z,100319.47
2019-05-03T16:57:46.302Z,100325.83
2019-05-03T17:00:17.838Z,100330.58
2019-05-03T17:02:47.638Z,100338.22
2019-05-03T17:05:21.718Z,100335.75
2019-05-03T17:08:09.602Z,100333.83
2019-05-03T17:10:45.375Z,100346.66
2019-05-03T17:13:14.833Z,100351.92
2019-05-03T17:15:44.636Z,100365.55
2019-05-03T17:18:14.688Z,100363.18
2019-05-03T17:20:45.689Z,100381.06
2019-05-03T17:23:15.535Z,100395.41
2019-05-03T17:25:45.156Z,100396.66
2019-05-03T17:28:15.702Z,100400.95
2019-05-03T17:30:45.506Z,100403.41
2019-05-03T17:33:16.115Z,100400.23
2019-05-03T17:35:45.851Z,100398.08
2019-05-03T17:38:15.771Z,100385.98
2019-05-03T17:41:04.322Z,100379.57
2019-05-03T17:43:38.430Z,100379.84
2019-05-03T17:46:09.921Z,100374.97
2019-05-03T17:48:39.548Z,100365.42
2019-05-03T17:51:10.887Z,100364.41
2019-05-03T17:53:54.792Z,100362.70
2019-05-03T17:56:32.072Z,100365.53
2019-05-03T17:59:09.037Z,100356.09
2019-05-03T18:01:58.066Z,100359.05
2019-05-03T18:04:41.482Z,100366.69
2019-05-03T18:07:15.473Z,100368.64
2019-05-03T18:09:46.756Z,100370.58
2019-05-03T18:12:17.596Z,100363.59
2019-05-03T18:14:47.633Z,100368.66
2019-05-03T18:17:18.519Z,100368.16
2019-05-03T18:19:48.250Z,100368.42
2019-05-03T18:22:18.047Z,100377.59
2019-05-03T18:24:47.892Z,100364.77
2019-05-03T18:27:17.528Z,100366.10
2019-05-03T18:29:47.287Z,100369.91
2019-05-03T18:32:16.947Z,100366.02
2019-05-03T18:34:46.572Z,100369.52
2019-05-03T18:37:16.242Z,100367.52
2019-05-03T18:39:45.879Z,100369.08
2019-05-03T18:42:20.100Z,100370.28
2019-05-03T18:44:51.737Z,100368.34
2019-05-03T18:47:22.992Z,100369.43
2019-05-03T18:49:54.858Z,100370.36
2019-05-03T18:52:24.666Z,100370.45
2019-05-03T18:54:55.132Z,100375.72
2019-05-03T18:57:25.559Z,100369.27
2019-05-03T18:59:55.707Z,100366.05
2019-05-03T19:02:25.809Z,100370.42
2019-05-03T19:04:56.033Z,100373.69
2019-05-03T19:07:45.265Z,100375.31
2019-05-03T19:10:26.018Z,100365.77
2019-05-03T19:12:57.321Z,100379.32
2019-05-03T19:15:27.113Z,100367.84
2019-05-03T19:17:58.374Z,100368.23
2019-05-03T19:20:28.136Z,100361.48
2019-05-03T19:22:58.128Z,100361.94
2019-05-03T19:25:27.755Z,100359.02
2019-05-03T19:27:57.427Z,100353.92
2019-05-03T19:30:27.169Z,100353.41
2019-05-03T19:32:57.059Z,100345.69
2019-05-03T19:35:27.664Z,100352.58
2019-05-03T19:37:57.726Z,100353.02
2019-05-03T19:40:27.345Z,100355.50
2019-05-03T19:42:57.029Z,100350.44
2019-05-03T19:45:26.663Z,100348.78
2019-05-03T19:47:56.413Z,100347.27
2019-05-03T19:50:27.264Z,100344.16
2019-05-03T19:53:11.348Z,100345.56
2019-05-03T19:55:40.992Z,100341.94
2019-05-03T19:58:10.734Z,100338.70
2019-05-03T20:00:51.196Z,100337.39
2019-05-03T20:03:24.691Z,100334.20
2019-05-03T20:05:55.433Z,100322.39
2019-05-03T20:08:27.014Z,100322.78
2019-05-03T20:10:58.280Z,100320.82
2019-05-03T20:13:34.594Z,100325.80
2019-05-03T20:15:59.357Z,100322.47
2019-05-03T20:18:28.979Z,100316.25
2019-05-03T20:20:58.602Z,100319.34
2019-05-03T20:23:28.262Z,100319.42
2019-05-03T20:25:57.892Z,100313.53
2019-05-03T20:28:27.505Z,100319.42
2019-05-03T20:30:57.212Z,100323.59
2019-05-03T20:33:26.878Z,100322.81
2019-05-03T20:36:00.174Z,100323.64
2019-05-03T20:38:33.828Z,100326.22
2019-05-03T20:41:08.918Z,100322.55
2019-05-03T20:43:58.048Z,100323.50
2019-05-03T20:46:43.540Z,100319.28
2019-05-03T20:49:16.860Z,100320.59
2019-05-03T20:51:51.405Z,100319.79
2019-05-03T20:54:35.037Z,100315.17
2019-05-03T20:57:05.940Z,100311.94
2019-05-03T20:59:48.691Z,100318.47
2019-05-03T21:02:17.272Z,100311.80
2019-05-03T21:04:47.051Z,100310.41
2019-05-03T21:07:16.715Z,100308.20
2019-05-03T21:09:46.361Z,100312.06
2019-05-03T21:12:16.459Z,100309.73
2019-05-03T21:14:46.090Z,100304.36
2019-05-03T21:17:34.570Z,100302.20
2019-05-03T21:20:10.981Z,100308.16
2019-05-03T21:22:44.277Z,100316.09
2019-05-03T21:25:15.696Z,100310.41
2019-05-03T21:27:45.362Z,100313.55
2019-05-03T21:30:15.210Z,100308.42
2019-05-03T21:32:44.799Z,100308.66
2019-05-03T21:35:14.858Z,100301.95
2019-05-03T21:37:45.404Z,100309.97
2019-05-03T21:40:15.619Z,100303.70
2019-05-03T21:42:45.403Z,100303.50
2019-05-03T21:45:16.998Z,100302.92
2019-05-03T21:47:48.510Z,100307.27
2019-05-03T21:50:19.600Z,100308.64
2019-05-03T21:52:49.313Z,100307.86
2019-05-03T21:55:18.934Z,100303.32
2019-05-03T21:57:48.627Z,100310.45
2019-05-03T22:00:19.825Z,100299.48
2019-05-03T22:02:49.847Z,100305.09
2019-05-03T22:05:20.823Z,100295.47
2019-05-03T22:07:56.587Z,100300.52
2019-05-03T22:10:26.287Z,100298.50
2019-05-03T22:12:55.899Z,100297.68
2019-05-03T22:15:27.218Z,100296.81
2019-05-03T22:21:07.111Z,100301.58
2019-05-03T22:23:40.757Z,100301.63
2019-05-03T22:26:10.563Z,100295.66
2019-05-03T22:28:40.212Z,100298.73
2019-05-03T22:31:09.831Z,100293.41
2019-05-03T22:33:39.445Z,100285.06
2019-05-03T22:36:09.199Z,100285.13
2019-05-03T22:38:39.859Z,100287.15
2019-05-03T22:41:09.508Z,100288.48
2019-05-03T22:43:39.357Z,100285.57
2019-05-03T22:46:09.040Z,100298.19
2019-05-03T22:48:39.599Z,100290.73
2019-05-03T22:51:09.627Z,100303.74
2019-05-03T22:53:39.411Z,100300.98
2019-05-03T22:56:09.828Z,100311.80
2019-05-03T22:58:39.479Z,100318.37
2019-05-03T23:01:09.148Z,100320.40
2019-05-03T23:03:45.414Z,100314.05
2019-05-03T23:06:22.132Z,100323.59
2019-05-03T23:08:46.355Z,100336.97
2019-05-03T23:11:16.034Z,100332.47
2019-05-03T23:13:47.297Z,100317.98
2019-05-03T23:16:16.909Z,100332.08
2019-05-03T23:18:46.732Z,100317.36
2019-05-03T23:21:20.838Z,100299.77
2019-05-03T23:23:52.018Z,100295.98
2019-05-03T23:26:21.686Z,100301.63
2019-05-03T23:28:51.373Z,100290.66
2019-05-03T23:31:21.062Z,100297.52
2019-05-03T23:33:50.718Z,100289.78
2019-05-03T23:36:32.506Z,100286.08
2019-05-03T23:38:51.636Z,100272.63
2019-05-03T23:41:21.983Z,100265.28
2019-05-03T23:43:51.587Z,100262.95
2019-05-03T23:46:22.846Z,100262.35
2019-05-03T23:48:52.592Z,100253.31
2019-05-03T23:51:40.319Z,100248.77
2019-05-03T23:54:10.430Z,100247.39
2019-05-03T23:56:40.110Z,100243.33
2019-05-03T23:59:09.756Z,100238.41
